Airfield :
LOGIN :

Register | Disclaimer

   EN    FR    IT 

 










Legend :    VFR   Marginal VFR   IFR   Intensive IFR   Very Intensive IFR
Visi :
Ceiling :
>= 8 km
>= 3000ft
5 to 8 km
1000 to 3000 ft
1500m to 5 km
500 to 1000 ft
800 to 1500m
200 to 500 ft
< 800m
< 200 ft
Symbols :   Thunderstorms  Fog  Heavy snow  Heavy precipitations  Wind > 20 kt
SIGMETs :     Misc.  Thunderstorms  Icing  Turbulence  Mountain Waves  Volcanic Ashes







- Airport Elevation : 70 ft
- IATA code : WBG


ETNS - Schleswig

CURRENT METAR :
  • 190920Z 25020KT 8000 -RA BKN006 06/05 Q1011 YLO WHT TEMPO YLO

EXPIRED METARs :
  • 190820Z 24017KT 8000 BKN005 06/05 Q1010 YLO WHT TEMPO YLO
  • 190737Z 25018KT 8000 BKN005 06/04 Q1011 YLO GRN TEMPO YLO
  • 190720Z 25017KT 7000 BKN005 06/05 Q1010 YLO GRN TEMPO YLO

TAF COR TAF ETNS
Valid from the 19 at 09:00 until the 19 at 18:00 UTC


190835Z 1909/1918 24015KT 8000 NSW SCT010 BKN020
TEMPO 1909/1912 24015G25KT 4000 -RA BKN005 BKN020TCU
BECMG 1910/1912 25018G28KT 8000 NSW BKN030
TEMPO 1912/1916 26022G32KT 3000 SHRA BKN010 BKN015CB BY ETGL
No reported NOTAMs for that airfield.



MET'MAP, your aeronautical weather chart ! - Copyright ORBIFLY December 2007 - Disclaimer

ORBIFLY MET'MAP TEAM :

Programming & Development : Alexandra Zaïnal
Concept & Development : Baudouin d'Aumeries
Co-Development & Prog : Marc-Olivier Méhu
Technical & hardware support : Manuel Goepfert

Contact : metmap@orbifly.com




SOURCES & CREDITS :

   NOAA